sensor_id;sensor_type;location;lat;lon;timestamp;temperature;humidity
20714;DHT22;10518;50.742;4.226;2022-10-04T00:00:37;12.10;99.90
20714;DHT22;10518;50.742;4.226;2022-10-04T00:03:21;12.10;99.90
20714;DHT22;10518;50.742;4.226;2022-10-04T00:05:52;12.10;99.90
20714;DHT22;10518;50.742;4.226;2022-10-04T00:08:41;12.10;99.90
20714;DHT22;10518;50.742;4.226;2022-10-04T00:11:30;12.00;99.90
20714;DHT22;10518;50.742;4.226;2022-10-04T00:14:00;12.00;99.90
20714;DHT22;10518;50.742;4.226;2022-10-04T00:16:36;12.00;99.90
20714;DHT22;10518;50.742;4.226;2022-10-04T00:19:24;11.90;99.90
20714;DHT22;10518;50.742;4.226;2022-10-04T00:24:25;11.80;99.90
20714;DHT22;10518;50.742;4.226;2022-10-04T00:29:29;11.80;99.90
20714;DHT22;10518;50.742;4.226;2022-10-04T00:32:22;11.80;99.90
20714;DHT22;10518;50.742;4.226;2022-10-04T00:34:50;11.80;99.90
20714;DHT22;10518;50.742;4.226;2022-10-04T00:37:17;11.70;99.90
20714;DHT22;10518;50.742;4.226;2022-10-04T00:39:59;11.70;99.90
20714;DHT22;10518;50.742;4.226;2022-10-04T00:45:10;11.70;99.90
20714;DHT22;10518;50.742;4.226;2022-10-04T00:52:59;11.60;99.90
20714;DHT22;10518;50.742;4.226;2022-10-04T00:55:36;11.50;99.90
20714;DHT22;10518;50.742;4.226;2022-10-04T00:58:06;11.50;99.90
20714;DHT22;10518;50.742;4.226;2022-10-04T01:00:37;11.50;99.90
20714;DHT22;10518;50.742;4.226;2022-10-04T01:03:08;11.50;99.90
20714;DHT22;10518;50.742;4.226;2022-10-04T01:05:38;11.40;99.90
20714;DHT22;10518;50.742;4.226;2022-10-04T01:13:20;11.40;99.90
20714;DHT22;10518;50.742;4.226;2022-10-04T01:16:03;11.40;99.90
20714;DHT22;10518;50.742;4.226;2022-10-04T01:18:35;11.40;99.90
20714;DHT22;10518;50.742;4.226;2022-10-04T01:21:06;11.40;99.90
20714;DHT22;10518;50.742;4.226;2022-10-04T01:23:36;11.40;99.90
20714;DHT22;10518;50.742;4.226;2022-10-04T01:26:05;11.40;99.90
20714;DHT22;10518;50.742;4.226;2022-10-04T01:28:32;11.40;99.90
20714;DHT22;10518;50.742;4.226;2022-10-04T01:30:58;11.40;99.90
20714;DHT22;10518;50.742;4.226;2022-10-04T01:33:24;11.30;99.90
20714;DHT22;10518;50.742;4.226;2022-10-04T01:35:50;11.30;99.90
20714;DHT22;10518;50.742;4.226;2022-10-04T01:38:16;11.30;99.90
20714;DHT22;10518;50.742;4.226;2022-10-04T01:40:52;11.30;99.90
20714;DHT22;10518;50.742;4.226;2022-10-04T01:43:26;11.30;99.90
20714;DHT22;10518;50.742;4.226;2022-10-04T01:45:59;11.20;99.90
20714;DHT22;10518;50.742;4.226;2022-10-04T01:48:30;11.20;99.90
20714;DHT22;10518;50.742;4.226;2022-10-04T01:51:01;11.20;99.90
20714;DHT22;10518;50.742;4.226;2022-10-04T01:53:31;11.30;99.90
20714;DHT22;10518;50.742;4.226;2022-10-04T01:56:09;11.10;99.90
20714;DHT22;10518;50.742;4.226;2022-10-04T01:58:57;11.10;99.90
20714;DHT22;10518;50.742;4.226;2022-10-04T02:01:44;11.20;99.90
20714;DHT22;10518;50.742;4.226;2022-10-04T02:04:30;11.20;99.90
20714;DHT22;10518;50.742;4.226;2022-10-04T02:06:58;11.20;99.90
20714;DHT22;10518;50.742;4.226;2022-10-04T02:09:33;11.20;99.90
20714;DHT22;10518;50.742;4.226;2022-10-04T02:11:59;11.10;99.90
20714;DHT22;10518;50.742;4.226;2022-10-04T02:14:28;11.10;99.90
20714;DHT22;10518;50.742;4.226;2022-10-04T02:16:58;11.10;99.90
20714;DHT22;10518;50.742;4.226;2022-10-04T02:19:31;11.10;99.90
20714;DHT22;10518;50.742;4.226;2022-10-04T02:22:03;11.00;99.90
20714;DHT22;10518;50.742;4.226;2022-10-04T02:24:32;11.00;99.90
20714;DHT22;10518;50.742;4.226;2022-10-04T02:26:58;11.10;99.90
20714;DHT22;10518;50.742;4.226;2022-10-04T02:29:25;11.00;99.90
20714;DHT22;10518;50.742;4.226;2022-10-04T02:31:51;11.00;99.90
20714;DHT22;10518;50.742;4.226;2022-10-04T02:34:35;10.90;99.90
20714;DHT22;10518;50.742;4.226;2022-10-04T02:37:03;10.90;99.90
20714;DHT22;10518;50.742;4.226;2022-10-04T02:39:43;10.90;99.90
20714;DHT22;10518;50.742;4.226;2022-10-04T02:45:02;10.90;99.90
20714;DHT22;10518;50.742;4.226;2022-10-04T02:47:41;10.90;99.90
20714;DHT22;10518;50.742;4.226;2022-10-04T02:50:30;10.90;99.90
20714;DHT22;10518;50.742;4.226;2022-10-04T02:53:14;10.80;99.90
20714;DHT22;10518;50.742;4.226;2022-10-04T02:55:42;10.80;99.90
20714;DHT22;10518;50.742;4.226;2022-10-04T02:58:10;10.80;99.90
20714;DHT22;10518;50.742;4.226;2022-10-04T03:00:54;10.70;99.90
20714;DHT22;10518;50.742;4.226;2022-10-04T03:03:29;10.70;99.90
20714;DHT22;10518;50.742;4.226;2022-10-04T03:06:11;10.70;99.90
20714;DHT22;10518;50.742;4.226;2022-10-04T03:08:44;10.60;99.90
20714;DHT22;10518;50.742;4.226;2022-10-04T03:11:12;10.60;99.90
20714;DHT22;10518;50.742;4.226;2022-10-04T03:13:40;10.60;99.90
20714;DHT22;10518;50.742;4.226;2022-10-04T03:16:07;10.50;99.90
20714;DHT22;10518;50.742;4.226;2022-10-04T03:18:35;10.50;99.90
20714;DHT22;10518;50.742;4.226;2022-10-04T03:21:04;10.60;99.90
20714;DHT22;10518;50.742;4.226;2022-10-04T03:23:31;10.60;99.90
20714;DHT22;10518;50.742;4.226;2022-10-04T03:26:13;10.60;99.90
20714;DHT22;10518;50.742;4.226;2022-10-04T03:28:41;10.60;99.90
20714;DHT22;10518;50.742;4.226;2022-10-04T03:31:07;10.60;99.90
20714;DHT22;10518;50.742;4.226;2022-10-04T03:33:33;10.60;99.90
20714;DHT22;10518;50.742;4.226;2022-10-04T03:35:59;10.70;99.90
20714;DHT22;10518;50.742;4.226;2022-10-04T03:38:26;10.60;99.90
20714;DHT22;10518;50.742;4.226;2022-10-04T03:41:00;10.60;99.90
20714;DHT22;10518;50.742;4.226;2022-10-04T03:43:28;10.70;99.90
20714;DHT22;10518;50.742;4.226;2022-10-04T03:45:56;10.70;99.90
20714;DHT22;10518;50.742;4.226;2022-10-04T03:48:43;10.60;99.90
20714;DHT22;10518;50.742;4.226;2022-10-04T03:51:15;10.60;99.90
20714;DHT22;10518;50.742;4.226;2022-10-04T03:53:44;10.50;99.90
20714;DHT22;10518;50.742;4.226;2022-10-04T03:56:16;10.50;99.90
20714;DHT22;10518;50.742;4.226;2022-10-04T03:58:43;10.50;99.90
20714;DHT22;10518;50.742;4.226;2022-10-04T04:01:38;10.50;99.90
20714;DHT22;10518;50.742;4.226;2022-10-04T04:04:17;10.40;99.90
20714;DHT22;10518;50.742;4.226;2022-10-04T04:07:49;10.50;99.90
20714;DHT22;10518;50.742;4.226;2022-10-04T04:09:58;10.40;99.90
20714;DHT22;10518;50.742;4.226;2022-10-04T04:12:37;10.40;99.90
20714;DHT22;10518;50.742;4.226;2022-10-04T04:15:08;10.40;99.90
20714;DHT22;10518;50.742;4.226;2022-10-04T04:17:39;10.30;99.90
20714;DHT22;10518;50.742;4.226;2022-10-04T04:20:18;10.30;99.90
20714;DHT22;10518;50.742;4.226;2022-10-04T04:22:51;10.30;99.90
20714;DHT22;10518;50.742;4.226;2022-10-04T04:25:18;10.30;99.90
20714;DHT22;10518;50.742;4.226;2022-10-04T04:27:48;10.40;99.90
20714;DHT22;10518;50.742;4.226;2022-10-04T04:30:17;10.40;99.90
20714;DHT22;10518;50.742;4.226;2022-10-04T04:32:51;10.40;99.90
20714;DHT22;10518;50.742;4.226;2022-10-04T04:35:29;10.40;99.90
20714;DHT22;10518;50.742;4.226;2022-10-04T04:40:34;10.40;99.90
20714;DHT22;10518;50.742;4.226;2022-10-04T04:43:02;10.30;99.90
20714;DHT22;10518;50.742;4.226;2022-10-04T04:45:29;10.30;99.90
20714;DHT22;10518;50.742;4.226;2022-10-04T04:47:58;10.30;99.90
20714;DHT22;10518;50.742;4.226;2022-10-04T04:50:35;10.30;99.90
20714;DHT22;10518;50.742;4.226;2022-10-04T04:53:08;10.30;99.90
20714;DHT22;10518;50.742;4.226;2022-10-04T04:58:06;10.30;99.90
20714;DHT22;10518;50.742;4.226;2022-10-04T05:00:37;10.40;99.90
20714;DHT22;10518;50.742;4.226;2022-10-04T05:03:16;10.30;99.90
20714;DHT22;10518;50.742;4.226;2022-10-04T05:05:44;10.30;99.90
20714;DHT22;10518;50.742;4.226;2022-10-04T05:08:20;10.30;99.90
20714;DHT22;10518;50.742;4.226;2022-10-04T05:11:01;10.30;99.90
20714;DHT22;10518;50.742;4.226;2022-10-04T05:16:00;10.30;99.90
20714;DHT22;10518;50.742;4.226;2022-10-04T05:18:31;10.20;99.90
20714;DHT22;10518;50.742;4.226;2022-10-04T05:21:04;10.20;99.90
20714;DHT22;10518;50.742;4.226;2022-10-04T05:23:30;10.20;99.90
20714;DHT22;10518;50.742;4.226;2022-10-04T05:25:57;10.20;99.90
20714;DHT22;10518;50.742;4.226;2022-10-04T05:28:25;10.20;99.90
20714;DHT22;10518;50.742;4.226;2022-10-04T05:31:03;10.20;99.90
20714;DHT22;10518;50.742;4.226;2022-10-04T05:33:55;10.20;99.90
20714;DHT22;10518;50.742;4.226;2022-10-04T05:36:37;10.20;99.90
20714;DHT22;10518;50.742;4.226;2022-10-04T05:39:42;10.20;99.90
20714;DHT22;10518;50.742;4.226;2022-10-04T05:42:25;10.20;99.90
20714;DHT22;10518;50.742;4.226;2022-10-04T05:44:56;10.20;99.90
20714;DHT22;10518;50.742;4.226;2022-10-04T05:47:25;10.20;99.90
20714;DHT22;10518;50.742;4.226;2022-10-04T05:49:54;10.20;99.90
20714;DHT22;10518;50.742;4.226;2022-10-04T05:52:36;10.20;99.90
20714;DHT22;10518;50.742;4.226;2022-10-04T05:58:24;10.30;99.90
20714;DHT22;10518;50.742;4.226;2022-10-04T06:06:22;10.20;99.90
20714;DHT22;10518;50.742;4.226;2022-10-04T06:22:45;10.20;99.90
20714;DHT22;10518;50.742;4.226;2022-10-04T06:26:17;10.30;99.90
20714;DHT22;10518;50.742;4.226;2022-10-04T06:28:35;10.30;99.90
20714;DHT22;10518;50.742;4.226;2022-10-04T06:31:23;10.50;99.90
20714;DHT22;10518;50.742;4.226;2022-10-04T06:36:44;10.70;99.90
20714;DHT22;10518;50.742;4.226;2022-10-04T06:42:09;10.80;99.90
20714;DHT22;10518;50.742;4.226;2022-10-04T06:45:01;10.90;99.90
20714;DHT22;10518;50.742;4.226;2022-10-04T06:47:45;11.00;99.90
20714;DHT22;10518;50.742;4.226;2022-10-04T07:03:48;11.00;99.90
20714;DHT22;10518;50.742;4.226;2022-10-04T07:06:28;11.00;99.90
20714;DHT22;10518;50.742;4.226;2022-10-04T07:08:56;11.30;99.90
20714;DHT22;10518;50.742;4.226;2022-10-04T07:11:35;11.50;99.90
20714;DHT22;10518;50.742;4.226;2022-10-04T07:16:47;12.00;99.90
20714;DHT22;10518;50.742;4.226;2022-10-04T07:27:41;12.80;99.90
20714;DHT22;10518;50.742;4.226;2022-10-04T07:30:15;12.80;99.90
20714;DHT22;10518;50.742;4.226;2022-10-04T07:32:45;12.90;99.90
20714;DHT22;10518;50.742;4.226;2022-10-04T07:35:12;13.00;99.90
20714;DHT22;10518;50.742;4.226;2022-10-04T07:43:58;13.00;99.90
20714;DHT22;10518;50.742;4.226;2022-10-04T07:46:48;13.00;99.90
20714;DHT22;10518;50.742;4.226;2022-10-04T07:49:18;13.10;99.90
20714;DHT22;10518;50.742;4.226;2022-10-04T07:54:44;13.10;99.90
20714;DHT22;10518;50.742;4.226;2022-10-04T07:57:55;13.30;99.90
20714;DHT22;10518;50.742;4.226;2022-10-04T08:00:29;13.50;99.90
20714;DHT22;10518;50.742;4.226;2022-10-04T08:05:41;14.00;99.90
20714;DHT22;10518;50.742;4.226;2022-10-04T08:14:28;14.10;99.90
20714;DHT22;10518;50.742;4.226;2022-10-04T08:25:13;14.40;99.90
20714;DHT22;10518;50.742;4.226;2022-10-04T08:31:10;14.70;99.90
20714;DHT22;10518;50.742;4.226;2022-10-04T08:38:56;14.80;99.90
20714;DHT22;10518;50.742;4.226;2022-10-04T08:44:38;15.10;99.90
20714;DHT22;10518;50.742;4.226;2022-10-04T09:01:54;14.80;99.90
20714;DHT22;10518;50.742;4.226;2022-10-04T09:04:38;14.90;99.90
20714;DHT22;10518;50.742;4.226;2022-10-04T09:07:16;15.00;99.90
20714;DHT22;10518;50.742;4.226;2022-10-04T09:15:52;15.30;99.90
20714;DHT22;10518;50.742;4.226;2022-10-04T09:18:49;15.40;99.90
20714;DHT22;10518;50.742;4.226;2022-10-04T09:21:27;15.30;99.90
20714;DHT22;10518;50.742;4.226;2022-10-04T09:27:11;15.40;99.90
20714;DHT22;10518;50.742;4.226;2022-10-04T09:29:59;15.30;99.90
20714;DHT22;10518;50.742;4.226;2022-10-04T09:35:51;15.40;99.90
20714;DHT22;10518;50.742;4.226;2022-10-04T09:52:30;15.90;99.90
20714;DHT22;10518;50.742;4.226;2022-10-04T09:55:13;16.00;99.90
20714;DHT22;10518;50.742;4.226;2022-10-04T10:00:42;16.20;99.90
20714;DHT22;10518;50.742;4.226;2022-10-04T10:06:24;16.20;99.90
20714;DHT22;10518;50.742;4.226;2022-10-04T10:15:01;16.00;99.90
20714;DHT22;10518;50.742;4.226;2022-10-04T10:18:07;15.80;99.90
20714;DHT22;10518;50.742;4.226;2022-10-04T10:21:02;15.90;99.90
20714;DHT22;10518;50.742;4.226;2022-10-04T10:23:52;16.00;99.90
20714;DHT22;10518;50.742;4.226;2022-10-04T10:34:34;16.10;99.90
20714;DHT22;10518;50.742;4.226;2022-10-04T10:47:59;16.50;99.90
20714;DHT22;10518;50.742;4.226;2022-10-04T11:05:26;17.40;99.90
20714;DHT22;10518;50.742;4.226;2022-10-04T11:14:36;17.50;99.90
20714;DHT22;10518;50.742;4.226;2022-10-04T11:17:48;17.40;99.90
20714;DHT22;10518;50.742;4.226;2022-10-04T11:20:39;17.40;99.90
20714;DHT22;10518;50.742;4.226;2022-10-04T11:28:41;17.30;99.90
20714;DHT22;10518;50.742;4.226;2022-10-04T11:40:20;17.50;99.90
20714;DHT22;10518;50.742;4.226;2022-10-04T11:43:23;17.50;99.90
20714;DHT22;10518;50.742;4.226;2022-10-04T11:51:17;17.70;99.90
20714;DHT22;10518;50.742;4.226;2022-10-04T12:10:42;17.80;99.90
20714;DHT22;10518;50.742;4.226;2022-10-04T12:27:22;18.00;99.90
20714;DHT22;10518;50.742;4.226;2022-10-04T12:40:46;18.70;99.90
20714;DHT22;10518;50.742;4.226;2022-10-04T12:49:04;18.40;99.90
20714;DHT22;10518;50.742;4.226;2022-10-04T12:51:51;18.70;99.90
20714;DHT22;10518;50.742;4.226;2022-10-04T12:57:20;18.60;99.90
20714;DHT22;10518;50.742;4.226;2022-10-04T12:59:52;18.60;99.90
20714;DHT22;10518;50.742;4.226;2022-10-04T13:02:39;18.80;99.90
20714;DHT22;10518;50.742;4.226;2022-10-04T13:05:40;19.20;99.90
20714;DHT22;10518;50.742;4.226;2022-10-04T13:22:08;18.70;99.90
20714;DHT22;10518;50.742;4.226;2022-10-04T13:24:55;18.70;99.90
20714;DHT22;10518;50.742;4.226;2022-10-04T13:30:17;18.90;99.90
20714;DHT22;10518;50.742;4.226;2022-10-04T13:35:41;18.70;99.90
20714;DHT22;10518;50.742;4.226;2022-10-04T13:41:11;18.80;99.90
20714;DHT22;10518;50.742;4.226;2022-10-04T13:47:07;18.90;99.90
20714;DHT22;10518;50.742;4.226;2022-10-04T13:52:43;19.50;99.90
20714;DHT22;10518;50.742;4.226;2022-10-04T14:01:29;18.90;99.90
20714;DHT22;10518;50.742;4.226;2022-10-04T14:04:31;19.20;99.90
20714;DHT22;10518;50.742;4.226;2022-10-04T14:09:59;19.10;99.90
20714;DHT22;10518;50.742;4.226;2022-10-04T14:12:39;19.10;99.90
20714;DHT22;10518;50.742;4.226;2022-10-04T14:15:28;19.30;99.90
20714;DHT22;10518;50.742;4.226;2022-10-04T14:23:59;19.00;99.90
20714;DHT22;10518;50.742;4.226;2022-10-04T14:32:01;18.80;99.90
20714;DHT22;10518;50.742;4.226;2022-10-04T14:40:34;18.60;99.90
20714;DHT22;10518;50.742;4.226;2022-10-04T14:46:23;18.70;99.90
20714;DHT22;10518;50.742;4.226;2022-10-04T14:57:57;18.80;99.90
20714;DHT22;10518;50.742;4.226;2022-10-04T15:03:16;18.60;99.90
20714;DHT22;10518;50.742;4.226;2022-10-04T15:16:47;19.10;99.90
20714;DHT22;10518;50.742;4.226;2022-10-04T15:30:17;18.80;99.90
20714;DHT22;10518;50.742;4.226;2022-10-04T15:36:10;18.80;99.90
20714;DHT22;10518;50.742;4.226;2022-10-04T15:38:51;18.70;99.90
20714;DHT22;10518;50.742;4.226;2022-10-04T15:44:14;18.80;99.90
20714;DHT22;10518;50.742;4.226;2022-10-04T15:46:51;18.80;99.90
20714;DHT22;10518;50.742;4.226;2022-10-04T15:49:47;19.10;99.90
20714;DHT22;10518;50.742;4.226;2022-10-04T15:55:30;18.80;99.90
20714;DHT22;10518;50.742;4.226;2022-10-04T15:58:13;18.80;99.90
20714;DHT22;10518;50.742;4.226;2022-10-04T16:01:35;18.80;99.90
20714;DHT22;10518;50.742;4.226;2022-10-04T16:06:51;18.50;99.90
20714;DHT22;10518;50.742;4.226;2022-10-04T16:09:38;18.50;99.90
20714;DHT22;10518;50.742;4.226;2022-10-04T16:12:32;18.40;99.90
20714;DHT22;10518;50.742;4.226;2022-10-04T16:15:38;18.40;99.90
20714;DHT22;10518;50.742;4.226;2022-10-04T16:18:13;18.20;99.90
20714;DHT22;10518;50.742;4.226;2022-10-04T16:23:40;18.10;99.90
20714;DHT22;10518;50.742;4.226;2022-10-04T16:36:25;18.10;99.90
20714;DHT22;10518;50.742;4.226;2022-10-04T16:38:54;18.10;99.90
20714;DHT22;10518;50.742;4.226;2022-10-04T16:41:54;17.90;99.90
20714;DHT22;10518;50.742;4.226;2022-10-04T16:46:55;18.10;99.90
20714;DHT22;10518;50.742;4.226;2022-10-04T16:49:32;17.80;99.90
20714;DHT22;10518;50.742;4.226;2022-10-04T16:57:22;17.50;99.90
20714;DHT22;10518;50.742;4.226;2022-10-04T16:59:56;17.60;99.90
20714;DHT22;10518;50.742;4.226;2022-10-04T17:02:55;17.60;99.90
20714;DHT22;10518;50.742;4.226;2022-10-04T17:05:40;17.50;99.90
20714;DHT22;10518;50.742;4.226;2022-10-04T17:13:34;17.20;99.90
20714;DHT22;10518;50.742;4.226;2022-10-04T17:16:12;17.10;99.90
20714;DHT22;10518;50.742;4.226;2022-10-04T17:24:20;16.80;99.90
20714;DHT22;10518;50.742;4.226;2022-10-04T17:26:51;16.70;99.90
20714;DHT22;10518;50.742;4.226;2022-10-04T17:29:46;16.50;99.90
20714;DHT22;10518;50.742;4.226;2022-10-04T17:32:27;16.50;99.90
20714;DHT22;10518;50.742;4.226;2022-10-04T17:35:11;16.60;99.90
20714;DHT22;10518;50.742;4.226;2022-10-04T17:38:02;16.60;99.90
20714;DHT22;10518;50.742;4.226;2022-10-04T17:40:52;16.50;99.90
20714;DHT22;10518;50.742;4.226;2022-10-04T17:52:01;16.40;99.90
20714;DHT22;10518;50.742;4.226;2022-10-04T17:54:53;16.40;99.90
20714;DHT22;10518;50.742;4.226;2022-10-04T18:00:25;16.30;99.90
20714;DHT22;10518;50.742;4.226;2022-10-04T18:05:46;16.20;99.90
20714;DHT22;10518;50.742;4.226;2022-10-04T18:11:00;16.20;99.90
20714;DHT22;10518;50.742;4.226;2022-10-04T18:13:35;16.10;99.90
20714;DHT22;10518;50.742;4.226;2022-10-04T18:16:21;16.00;99.90
20714;DHT22;10518;50.742;4.226;2022-10-04T18:18:49;16.00;99.90
20714;DHT22;10518;50.742;4.226;2022-10-04T18:21:21;16.00;99.90
20714;DHT22;10518;50.742;4.226;2022-10-04T18:23:54;16.00;99.90
20714;DHT22;10518;50.742;4.226;2022-10-04T18:26:20;15.90;99.90
20714;DHT22;10518;50.742;4.226;2022-10-04T18:28:48;15.90;99.90
20714;DHT22;10518;50.742;4.226;2022-10-04T18:34:16;15.90;99.90
20714;DHT22;10518;50.742;4.226;2022-10-04T18:37:04;16.00;99.90
20714;DHT22;10518;50.742;4.226;2022-10-04T18:39:42;16.10;99.90
20714;DHT22;10518;50.742;4.226;2022-10-04T18:42:18;16.30;99.90
20714;DHT22;10518;50.742;4.226;2022-10-04T18:44:47;16.50;99.90
20714;DHT22;10518;50.742;4.226;2022-10-04T18:50:00;16.60;99.90
20714;DHT22;10518;50.742;4.226;2022-10-04T18:55:28;16.70;99.90
20714;DHT22;10518;50.742;4.226;2022-10-04T19:01:40;16.40;99.90
20714;DHT22;10518;50.742;4.226;2022-10-04T19:05:05;16.30;99.90
20714;DHT22;10518;50.742;4.226;2022-10-04T19:08:06;16.30;99.90
20714;DHT22;10518;50.742;4.226;2022-10-04T19:10:41;16.20;99.90
20714;DHT22;10518;50.742;4.226;2022-10-04T19:27:50;16.40;99.90
20714;DHT22;10518;50.742;4.226;2022-10-04T19:30:21;16.60;99.90
20714;DHT22;10518;50.742;4.226;2022-10-04T19:33:04;16.50;99.90
20714;DHT22;10518;50.742;4.226;2022-10-04T19:40:49;16.50;99.90
20714;DHT22;10518;50.742;4.226;2022-10-04T19:46:20;16.50;99.90
20714;DHT22;10518;50.742;4.226;2022-10-04T19:48:49;16.40;99.90
20714;DHT22;10518;50.742;4.226;2022-10-04T19:51:32;16.20;99.90
20714;DHT22;10518;50.742;4.226;2022-10-04T19:54:29;16.20;99.90
20714;DHT22;10518;50.742;4.226;2022-10-04T19:56:57;16.00;99.90
20714;DHT22;10518;50.742;4.226;2022-10-04T19:59:40;16.00;99.90
20714;DHT22;10518;50.742;4.226;2022-10-04T20:02:11;15.90;99.90
20714;DHT22;10518;50.742;4.226;2022-10-04T20:04:37;15.80;99.90
20714;DHT22;10518;50.742;4.226;2022-10-04T20:07:24;15.70;99.90
20714;DHT22;10518;50.742;4.226;2022-10-04T20:09:53;15.70;99.90
20714;DHT22;10518;50.742;4.226;2022-10-04T20:12:35;15.80;99.90
20714;DHT22;10518;50.742;4.226;2022-10-04T20:17:43;15.80;99.90
20714;DHT22;10518;50.742;4.226;2022-10-04T20:20:13;15.90;99.90
20714;DHT22;10518;50.742;4.226;2022-10-04T20:28:09;16.10;99.90
20714;DHT22;10518;50.742;4.226;2022-10-04T20:30:56;16.00;99.90
20714;DHT22;10518;50.742;4.226;2022-10-04T20:38:47;16.10;99.90
20714;DHT22;10518;50.742;4.226;2022-10-04T20:44:01;15.90;99.90
20714;DHT22;10518;50.742;4.226;2022-10-04T20:46:34;15.90;99.90
20714;DHT22;10518;50.742;4.226;2022-10-04T20:49:13;16.00;99.90
20714;DHT22;10518;50.742;4.226;2022-10-04T20:51:46;16.00;99.90
20714;DHT22;10518;50.742;4.226;2022-10-04T20:54:20;16.10;99.90
20714;DHT22;10518;50.742;4.226;2022-10-04T20:56:48;16.20;99.90
20714;DHT22;10518;50.742;4.226;2022-10-04T20:59:15;16.00;99.90
20714;DHT22;10518;50.742;4.226;2022-10-04T21:01:41;16.10;99.90
20714;DHT22;10518;50.742;4.226;2022-10-04T21:04:30;16.10;99.90
20714;DHT22;10518;50.742;4.226;2022-10-04T21:07:07;16.40;99.90
20714;DHT22;10518;50.742;4.226;2022-10-04T21:09:35;16.30;99.90
20714;DHT22;10518;50.742;4.226;2022-10-04T21:12:02;16.40;99.90
20714;DHT22;10518;50.742;4.226;2022-10-04T21:14:35;16.30;99.90
20714;DHT22;10518;50.742;4.226;2022-10-04T21:17:57;16.20;99.90
20714;DHT22;10518;50.742;4.226;2022-10-04T21:19:48;16.20;99.90
20714;DHT22;10518;50.742;4.226;2022-10-04T21:27:32;16.30;99.90
20714;DHT22;10518;50.742;4.226;2022-10-04T21:29:59;16.40;99.90
20714;DHT22;10518;50.742;4.226;2022-10-04T21:32:26;16.40;99.90
20714;DHT22;10518;50.742;4.226;2022-10-04T21:34:52;16.40;99.90
20714;DHT22;10518;50.742;4.226;2022-10-04T21:37:18;16.60;99.90
20714;DHT22;10518;50.742;4.226;2022-10-04T21:39:44;16.60;99.90
20714;DHT22;10518;50.742;4.226;2022-10-04T21:42:10;16.60;99.90
20714;DHT22;10518;50.742;4.226;2022-10-04T21:44:36;16.40;99.90
20714;DHT22;10518;50.742;4.226;2022-10-04T21:47:01;16.50;99.90
20714;DHT22;10518;50.742;4.226;2022-10-04T21:49:27;16.30;99.90
20714;DHT22;10518;50.742;4.226;2022-10-04T21:51:52;16.30;99.90
20714;DHT22;10518;50.742;4.226;2022-10-04T21:54:18;16.30;99.90
20714;DHT22;10518;50.742;4.226;2022-10-04T21:56:43;16.40;99.90
20714;DHT22;10518;50.742;4.226;2022-10-04T21:59:09;16.40;99.90
20714;DHT22;10518;50.742;4.226;2022-10-04T22:01:34;16.40;99.90
20714;DHT22;10518;50.742;4.226;2022-10-04T22:04:00;16.40;99.90
20714;DHT22;10518;50.742;4.226;2022-10-04T22:06:26;16.40;99.90
20714;DHT22;10518;50.742;4.226;2022-10-04T22:08:51;16.60;99.90
20714;DHT22;10518;50.742;4.226;2022-10-04T22:11:17;16.40;99.90
20714;DHT22;10518;50.742;4.226;2022-10-04T22:13:42;16.40;99.90
20714;DHT22;10518;50.742;4.226;2022-10-04T22:16:09;16.30;99.90
20714;DHT22;10518;50.742;4.226;2022-10-04T22:18:35;16.30;99.90
20714;DHT22;10518;50.742;4.226;2022-10-04T22:21:00;16.20;99.90
20714;DHT22;10518;50.742;4.226;2022-10-04T22:23:28;16.20;99.90
20714;DHT22;10518;50.742;4.226;2022-10-04T22:25:54;16.30;99.90
20714;DHT22;10518;50.742;4.226;2022-10-04T22:28:29;16.50;99.90
20714;DHT22;10518;50.742;4.226;2022-10-04T22:30:55;16.40;99.90
20714;DHT22;10518;50.742;4.226;2022-10-04T22:33:31;16.50;99.90
20714;DHT22;10518;50.742;4.226;2022-10-04T22:36:20;16.70;99.90
20714;DHT22;10518;50.742;4.226;2022-10-04T22:39:09;16.60;99.90
20714;DHT22;10518;50.742;4.226;2022-10-04T22:41:41;16.30;99.90
20714;DHT22;10518;50.742;4.226;2022-10-04T22:44:20;16.20;99.90
20714;DHT22;10518;50.742;4.226;2022-10-04T22:46:54;16.20;99.90
20714;DHT22;10518;50.742;4.226;2022-10-04T22:49:25;16.00;99.90
20714;DHT22;10518;50.742;4.226;2022-10-04T22:51:52;15.90;99.90
20714;DHT22;10518;50.742;4.226;2022-10-04T22:54:21;16.00;99.90
20714;DHT22;10518;50.742;4.226;2022-10-04T22:56:47;15.80;99.90
20714;DHT22;10518;50.742;4.226;2022-10-04T22:59:15;16.20;99.90
20714;DHT22;10518;50.742;4.226;2022-10-04T23:01:42;16.40;99.90
20714;DHT22;10518;50.742;4.226;2022-10-04T23:04:23;16.50;99.90
20714;DHT22;10518;50.742;4.226;2022-10-04T23:06:49;16.50;99.90
20714;DHT22;10518;50.742;4.226;2022-10-04T23:09:15;16.50;99.90
20714;DHT22;10518;50.742;4.226;2022-10-04T23:11:42;16.50;99.90
20714;DHT22;10518;50.742;4.226;2022-10-04T23:14:07;16.50;99.90
20714;DHT22;10518;50.742;4.226;2022-10-04T23:16:33;16.40;99.90
20714;DHT22;10518;50.742;4.226;2022-10-04T23:19:08;16.50;99.90
20714;DHT22;10518;50.742;4.226;2022-10-04T23:21:37;16.60;99.90
20714;DHT22;10518;50.742;4.226;2022-10-04T23:26:39;17.00;99.90
20714;DHT22;10518;50.742;4.226;2022-10-04T23:29:16;16.90;99.90
20714;DHT22;10518;50.742;4.226;2022-10-04T23:31:42;16.90;99.90
20714;DHT22;10518;50.742;4.226;2022-10-04T23:34:16;16.80;99.90
20714;DHT22;10518;50.742;4.226;2022-10-04T23:36:43;16.80;99.90
20714;DHT22;10518;50.742;4.226;2022-10-04T23:39:12;16.80;99.90
20714;DHT22;10518;50.742;4.226;2022-10-04T23:41:42;16.80;99.90
20714;DHT22;10518;50.742;4.226;2022-10-04T23:44:11;16.60;99.90
20714;DHT22;10518;50.742;4.226;2022-10-04T23:46:37;16.60;99.90
20714;DHT22;10518;50.742;4.226;2022-10-04T23:49:03;16.50;99.90
20714;DHT22;10518;50.742;4.226;2022-10-04T23:51:28;16.60;99.90
20714;DHT22;10518;50.742;4.226;2022-10-04T23:53:54;16.50;99.90
20714;DHT22;10518;50.742;4.226;2022-10-04T23:56:25;16.50;99.90
20714;DHT22;10518;50.742;4.226;2022-10-04T23:58:54;16.70;99.90
